createdAt,value
2023-10-29T00:01:07.551Z,8.55
2023-10-29T00:03:38.224Z,8.63
2023-10-29T00:06:10.067Z,8.49
2023-10-29T00:08:40.395Z,8.39
2023-10-29T00:11:15.908Z,8.50
2023-10-29T00:13:46.160Z,8.55
2023-10-29T00:16:16.434Z,8.55
2023-10-29T00:18:46.786Z,8.55
2023-10-29T00:21:17.258Z,8.53
2023-10-29T00:23:47.656Z,8.45
2023-10-29T00:26:20.594Z,8.42
2023-10-29T00:28:53.535Z,8.45
2023-10-29T00:31:25.373Z,8.44
2023-10-29T00:33:56.226Z,8.23
2023-10-29T00:36:26.531Z,8.22
2023-10-29T00:38:56.847Z,8.19
2023-10-29T00:41:30.061Z,8.20
2023-10-29T00:44:00.892Z,8.17
2023-10-29T00:46:31.594Z,8.14
2023-10-29T00:49:04.111Z,8.01
2023-10-29T00:51:34.550Z,8.05
2023-10-29T00:54:05.079Z,8.01
2023-10-29T00:56:38.452Z,7.96
2023-10-29T00:59:13.301Z,7.93
2023-10-29T01:01:46.062Z,7.89
2023-10-29T01:04:16.625Z,7.91
2023-10-29T01:06:49.038Z,7.95
2023-10-29T01:09:19.833Z,8.01
2023-10-29T01:11:52.698Z,8.10
2023-10-29T01:14:23.090Z,8.12
2023-10-29T01:16:53.368Z,8.11
2023-10-29T01:19:23.578Z,8.12
2023-10-29T01:21:54.064Z,8.14
2023-10-29T01:24:24.256Z,8.16
2023-10-29T01:26:57.281Z,8.18
2023-10-29T01:29:27.941Z,8.19
2023-10-29T01:31:58.226Z,8.25
2023-10-29T01:34:28.570Z,8.41
2023-10-29T01:36:59.014Z,8.54
2023-10-29T01:39:29.420Z,8.57
2023-10-29T01:42:02.575Z,8.68
2023-10-29T01:44:32.812Z,8.66
2023-10-29T01:47:03.386Z,8.51
2023-10-29T01:49:33.584Z,8.57
2023-10-29T01:52:04.971Z,8.74
2023-10-29T01:54:35.219Z,8.74
2023-10-29T01:57:08.722Z,8.78
2023-10-29T01:59:43.089Z,8.74
2023-10-29T02:02:13.740Z,8.88
2023-10-29T02:04:44.305Z,8.78
2023-10-29T02:07:14.559Z,8.82
2023-10-29T02:09:45.234Z,8.85
2023-10-29T02:12:18.784Z,8.77
2023-10-29T02:14:49.537Z,8.74
2023-10-29T02:17:19.937Z,8.80
2023-10-29T02:19:50.190Z,8.69
2023-10-29T02:22:23.328Z,8.62
2023-10-29T02:24:53.783Z,8.66
2023-10-29T02:27:24.042Z,8.67
2023-10-29T02:29:55.982Z,8.64
2023-10-29T02:32:26.269Z,8.72
2023-10-29T02:34:56.649Z,8.64
2023-10-29T02:37:29.654Z,8.60
2023-10-29T02:39:59.969Z,8.60
2023-10-29T02:42:30.294Z,8.59
2023-10-29T02:45:00.651Z,8.61
2023-10-29T02:47:31.090Z,8.80
2023-10-29T02:50:01.361Z,8.67
2023-10-29T02:52:35.265Z,8.79
2023-10-29T02:55:06.093Z,8.69
2023-10-29T02:57:36.425Z,8.71
2023-10-29T03:00:07.835Z,8.77
2023-10-29T03:02:38.338Z,8.86
2023-10-29T03:05:13.532Z,8.87
2023-10-29T03:07:46.558Z,8.80
2023-10-29T03:10:17.076Z,8.85
2023-10-29T03:12:47.510Z,8.94
2023-10-29T03:15:21.089Z,8.88
2023-10-29T03:17:54.395Z,8.99
2023-10-29T03:20:24.693Z,8.91
2023-10-29T03:22:57.880Z,8.95
2023-10-29T03:25:28.250Z,8.96
2023-10-29T03:27:58.823Z,8.92
2023-10-29T03:30:30.126Z,8.86
2023-10-29T03:33:00.875Z,8.85
2023-10-29T03:35:34.629Z,8.81
2023-10-29T03:38:07.516Z,8.85
2023-10-29T03:40:38.381Z,8.85
2023-10-29T03:43:08.639Z,8.86
2023-10-29T03:45:39.704Z,8.81
2023-10-29T03:48:10.410Z,8.84
2023-10-29T03:50:40.952Z,8.87
2023-10-29T03:53:13.927Z,8.82
2023-10-29T03:55:44.187Z,8.85
2023-10-29T03:58:14.953Z,8.85
2023-10-29T04:00:46.772Z,8.90
2023-10-29T04:03:17.177Z,8.90
2023-10-29T04:05:47.686Z,8.95
2023-10-29T04:08:20.984Z,8.91
2023-10-29T04:10:51.720Z,8.87
2023-10-29T04:13:23.302Z,8.89
2023-10-29T04:15:53.848Z,8.93
2023-10-29T04:18:26.395Z,9.03
2023-10-29T04:20:56.698Z,9.09
2023-10-29T04:23:29.696Z,9.08
2023-10-29T04:26:00.139Z,9.07
2023-10-29T04:28:30.833Z,9.10
2023-10-29T04:31:01.729Z,9.09
2023-10-29T04:33:32.247Z,9.10
2023-10-29T04:36:02.663Z,9.17
2023-10-29T04:38:38.484Z,9.15
2023-10-29T04:41:09.021Z,9.14
2023-10-29T04:43:39.326Z,9.18
2023-10-29T04:46:11.795Z,9.16
2023-10-29T04:48:42.617Z,9.15
2023-10-29T04:51:13.053Z,9.16
2023-10-29T04:53:45.936Z,9.10
2023-10-29T04:56:16.330Z,9.08
2023-10-29T04:58:46.625Z,9.08
2023-10-29T05:01:19.392Z,9.10
2023-10-29T05:03:49.958Z,9.13
2023-10-29T05:06:23.721Z,9.07
2023-10-29T05:08:59.570Z,9.15
2023-10-29T05:11:29.917Z,9.06
2023-10-29T05:14:00.216Z,9.05
2023-10-29T05:16:33.464Z,9.09
2023-10-29T05:19:04.028Z,9.08
2023-10-29T05:21:34.309Z,9.09
2023-10-29T05:24:09.340Z,9.13
2023-10-29T05:26:39.897Z,9.17
2023-10-29T05:29:10.467Z,9.26
2023-10-29T05:31:40.723Z,9.28
2023-10-29T05:34:11.177Z,9.33
2023-10-29T05:36:42.221Z,9.36
2023-10-29T05:39:16.107Z,9.39
2023-10-29T05:41:46.753Z,9.49
2023-10-29T05:44:17.231Z,9.51
2023-10-29T05:46:47.471Z,9.68
2023-10-29T05:49:17.911Z,9.68
2023-10-29T05:51:48.299Z,9.69
2023-10-29T05:54:21.661Z,9.72
2023-10-29T05:56:51.948Z,9.77
2023-10-29T05:59:22.235Z,9.72
2023-10-29T06:01:52.812Z,9.89
2023-10-29T06:04:24.431Z,9.94
2023-10-29T06:06:55.036Z,9.93
2023-10-29T06:09:29.641Z,9.96
2023-10-29T06:12:00.470Z,9.97
2023-10-29T06:14:30.872Z,10.06
2023-10-29T06:17:12.237Z,10.13
2023-10-29T06:19:53.948Z,10.25
2023-10-29T06:22:24.489Z,10.34
2023-10-29T06:24:57.755Z,10.41
2023-10-29T06:27:28.335Z,10.51
2023-10-29T06:29:58.857Z,10.48
2023-10-29T06:32:29.095Z,10.58
2023-10-29T06:34:59.497Z,10.65
2023-10-29T06:37:29.795Z,10.73
2023-10-29T06:40:04.768Z,10.84
2023-10-29T06:42:35.287Z,10.93
2023-10-29T06:45:06.475Z,10.93
2023-10-29T06:47:36.827Z,10.96
2023-10-29T06:50:07.884Z,11.11
2023-10-29T06:52:38.874Z,11.25
2023-10-29T06:55:13.853Z,11.35
2023-10-29T06:57:44.225Z,11.37
2023-10-29T07:00:15.494Z,11.50
2023-10-29T07:02:46.225Z,11.48
2023-10-29T07:05:17.116Z,11.54
2023-10-29T07:07:47.577Z,11.65
2023-10-29T07:10:20.845Z,11.85
2023-10-29T07:12:51.160Z,11.85
2023-10-29T07:15:22.121Z,11.97
2023-10-29T07:17:52.934Z,12.04
2023-10-29T07:20:23.442Z,12.16
2023-10-29T07:22:53.688Z,12.29
2023-10-29T07:25:26.802Z,12.38
2023-10-29T07:27:57.014Z,12.47
2023-10-29T07:30:27.578Z,12.69
2023-10-29T07:32:57.885Z,12.73
2023-10-29T07:35:28.278Z,12.88
2023-10-29T07:37:58.523Z,12.99
2023-10-29T07:40:31.754Z,13.29
2023-10-29T07:43:02.206Z,13.36
2023-10-29T07:45:32.802Z,13.49
2023-10-29T07:48:03.974Z,13.51
2023-10-29T07:50:34.541Z,13.70
2023-10-29T07:53:04.769Z,13.76
2023-10-29T07:55:37.702Z,13.97
2023-10-29T07:58:08.206Z,14.02
2023-10-29T08:00:41.521Z,14.23
2023-10-29T08:03:12.174Z,14.40
2023-10-29T08:05:44.552Z,14.49
2023-10-29T08:08:17.352Z,14.63
2023-10-29T08:10:50.392Z,14.77
2023-10-29T08:13:20.612Z,14.78
2023-10-29T08:15:51.075Z,14.93
2023-10-29T08:18:21.467Z,14.88
2023-10-29T08:20:54.499Z,15.06
2023-10-29T08:23:24.757Z,15.12
2023-10-29T08:25:57.716Z,15.19
2023-10-29T08:28:29.339Z,15.31
2023-10-29T08:30:59.870Z,15.37
2023-10-29T08:33:30.984Z,15.52
2023-10-29T08:36:01.415Z,15.66
2023-10-29T08:38:34.541Z,15.78
2023-10-29T08:41:16.694Z,15.86
2023-10-29T08:43:47.195Z,16.09
2023-10-29T08:46:17.636Z,16.07
2023-10-29T08:48:48.038Z,16.18
2023-10-29T08:51:18.629Z,16.32
2023-10-29T08:53:48.971Z,16.43
2023-10-29T08:56:21.863Z,16.64
2023-10-29T08:58:52.107Z,16.59
2023-10-29T09:01:22.286Z,16.76
2023-10-29T09:03:52.711Z,16.82
2023-10-29T09:06:23.182Z,16.82
2023-10-29T09:08:53.498Z,16.92
2023-10-29T09:11:26.730Z,16.94
2023-10-29T09:13:56.975Z,17.03
2023-10-29T09:16:27.272Z,17.00
2023-10-29T09:18:57.491Z,17.19
2023-10-29T09:21:28.542Z,17.30
2023-10-29T09:23:58.906Z,17.43
2023-10-29T09:26:33.142Z,17.54
2023-10-29T09:29:06.387Z,17.44
2023-10-29T09:31:36.635Z,17.51
2023-10-29T09:34:08.012Z,17.74
2023-10-29T09:36:38.472Z,17.87
2023-10-29T09:39:09.961Z,17.78
2023-10-29T09:41:47.210Z,17.98
2023-10-29T09:44:21.481Z,18.11
2023-10-29T09:47:01.316Z,18.18
2023-10-29T09:49:31.513Z,18.32
2023-10-29T09:52:01.871Z,18.32
2023-10-29T09:54:32.260Z,18.38
2023-10-29T09:57:05.237Z,18.35
2023-10-29T09:59:36.323Z,18.23
2023-10-29T10:02:07.226Z,18.15
2023-10-29T10:04:40.534Z,18.24
2023-10-29T10:07:11.456Z,18.55
2023-10-29T10:09:54.751Z,18.62
2023-10-29T10:12:28.274Z,18.67
2023-10-29T10:15:07.728Z,18.65
2023-10-29T10:17:38.094Z,18.88
2023-10-29T10:20:12.605Z,18.95
2023-10-29T10:22:44.678Z,19.05
2023-10-29T10:25:22.782Z,19.10
2023-10-29T10:27:56.893Z,19.02
2023-10-29T10:30:35.253Z,19.09
2023-10-29T10:33:13.746Z,19.12
2023-10-29T10:35:45.613Z,19.13
2023-10-29T10:38:16.363Z,19.24
2023-10-29T10:40:46.642Z,19.27
2023-10-29T10:43:23.448Z,19.36
2023-10-29T10:45:55.044Z,19.50
2023-10-29T10:48:25.687Z,19.40
2023-10-29T10:50:58.291Z,19.42
2023-10-29T10:53:29.544Z,19.51
2023-10-29T10:56:04.111Z,19.49
2023-10-29T10:58:39.103Z,19.59
2023-10-29T11:01:10.618Z,19.70
2023-10-29T11:03:41.200Z,19.71
2023-10-29T11:06:12.487Z,19.78
2023-10-29T11:08:44.515Z,19.90
2023-10-29T11:11:15.788Z,19.98
2023-10-29T11:13:48.642Z,19.97
2023-10-29T11:16:26.578Z,19.89
2023-10-29T11:18:56.869Z,20.07
2023-10-29T11:21:36.839Z,20.09
2023-10-29T11:24:23.578Z,20.15
2023-10-29T11:26:53.825Z,20.13
2023-10-29T11:29:50.505Z,20.29
2023-10-29T11:32:38.761Z,20.15
2023-10-29T11:35:22.298Z,20.17
2023-10-29T11:37:55.772Z,20.22
2023-10-29T11:40:33.073Z,20.18
2023-10-29T11:43:20.360Z,20.30
2023-10-29T11:46:06.005Z,20.37
2023-10-29T11:48:36.369Z,20.40
2023-10-29T11:51:30.816Z,20.40
2023-10-29T11:54:06.426Z,20.44
2023-10-29T11:56:38.432Z,20.50
2023-10-29T11:59:09.793Z,20.48
2023-10-29T12:01:42.648Z,20.46
2023-10-29T12:04:13.557Z,20.46
2023-10-29T12:06:45.134Z,20.56
2023-10-29T12:09:22.959Z,20.52
2023-10-29T12:11:54.095Z,20.58
2023-10-29T12:14:40.141Z,20.55
2023-10-29T12:17:14.517Z,20.42
2023-10-29T12:19:46.696Z,20.31
2023-10-29T12:22:22.862Z,20.39
2023-10-29T12:24:57.338Z,20.43
2023-10-29T12:27:28.354Z,20.47
2023-10-29T12:29:58.738Z,20.44
2023-10-29T12:32:31.732Z,20.52
2023-10-29T12:35:02.450Z,20.48
2023-10-29T12:37:34.282Z,20.41
2023-10-29T12:40:04.958Z,20.50
2023-10-29T12:42:53.689Z,20.36
2023-10-29T12:45:28.738Z,20.44
2023-10-29T12:48:16.765Z,20.43
2023-10-29T12:50:51.577Z,20.36
2023-10-29T12:53:25.822Z,20.25
2023-10-29T12:55:56.524Z,20.27
2023-10-29T12:58:27.566Z,20.25
2023-10-29T13:00:59.784Z,20.19
2023-10-29T13:03:32.909Z,20.14
2023-10-29T13:06:03.212Z,20.14
2023-10-29T13:08:33.477Z,20.11
2023-10-29T13:11:04.328Z,20.12
2023-10-29T13:13:36.540Z,20.28
2023-10-29T13:16:07.616Z,20.35
2023-10-29T13:18:40.598Z,20.41
2023-10-29T13:21:13.853Z,20.47
2023-10-29T13:23:44.245Z,20.33
2023-10-29T13:26:14.582Z,20.33
2023-10-29T13:28:45.918Z,20.37
2023-10-29T13:31:18.492Z,20.25
2023-10-29T13:33:51.380Z,20.17
2023-10-29T13:36:22.817Z,20.04
2023-10-29T13:38:53.125Z,20.07
2023-10-29T13:41:24.347Z,19.96
2023-10-29T13:43:54.600Z,19.85
2023-10-29T13:46:24.911Z,19.78
2023-10-29T13:48:58.488Z,19.71
2023-10-29T13:51:28.658Z,19.58
2023-10-29T13:53:58.884Z,19.50
2023-10-29T13:56:29.727Z,19.56
2023-10-29T13:58:59.988Z,19.49
2023-10-29T14:01:30.229Z,19.45
2023-10-29T14:04:03.164Z,19.40
2023-10-29T14:06:34.667Z,19.34
2023-10-29T14:09:05.487Z,19.22
2023-10-29T14:11:36.397Z,19.24
2023-10-29T14:14:08.110Z,19.23
2023-10-29T14:16:40.580Z,19.14
2023-10-29T14:19:13.540Z,19.30
2023-10-29T14:21:43.762Z,19.34
2023-10-29T14:24:14.032Z,19.20
2023-10-29T14:26:44.329Z,19.11
2023-10-29T14:29:14.757Z,19.22
2023-10-29T14:31:45.207Z,19.13
2023-10-29T14:34:18.246Z,19.11
2023-10-29T14:36:48.466Z,19.12
2023-10-29T14:39:18.783Z,19.20
2023-10-29T14:41:52.960Z,19.10
2023-10-29T14:44:23.395Z,19.12
2023-10-29T14:46:53.737Z,18.91
2023-10-29T14:49:27.173Z,18.84
2023-10-29T14:51:57.527Z,18.81
2023-10-29T14:54:27.837Z,18.79
2023-10-29T14:56:58.192Z,18.66
2023-10-29T14:59:28.387Z,18.45
2023-10-29T15:02:00.035Z,18.45
2023-10-29T15:04:37.204Z,18.40
2023-10-29T15:07:07.788Z,18.25
2023-10-29T15:09:42.265Z,18.12
2023-10-29T15:12:13.739Z,18.10
2023-10-29T15:14:48.553Z,17.93
2023-10-29T15:17:21.172Z,17.89
2023-10-29T15:19:59.984Z,17.83
2023-10-29T15:22:30.731Z,17.77
2023-10-29T15:25:00.929Z,17.75
2023-10-29T15:27:31.270Z,17.64
2023-10-29T15:30:01.833Z,17.46
2023-10-29T15:32:32.148Z,17.38
2023-10-29T15:35:06.116Z,17.30
2023-10-29T15:37:36.403Z,17.27
2023-10-29T15:40:07.068Z,17.13
2023-10-29T15:42:37.289Z,17.09
2023-10-29T15:45:08.328Z,17.09
2023-10-29T15:47:38.624Z,17.05
2023-10-29T15:50:14.044Z,16.93
2023-10-29T15:52:44.517Z,16.81
2023-10-29T15:55:15.361Z,16.72
2023-10-29T15:57:45.723Z,16.69
2023-10-29T16:00:17.204Z,16.61
2023-10-29T16:02:47.469Z,16.63
2023-10-29T16:05:21.211Z,16.59
2023-10-29T16:07:52.141Z,16.51
2023-10-29T16:10:25.024Z,16.45
2023-10-29T16:12:55.645Z,16.50
2023-10-29T16:15:28.358Z,16.45
2023-10-29T16:18:01.166Z,16.41
2023-10-29T16:20:48.662Z,16.39
2023-10-29T16:23:20.847Z,16.39
2023-10-29T16:25:56.560Z,16.27
2023-10-29T16:28:31.109Z,16.19
2023-10-29T16:31:04.761Z,16.18
2023-10-29T16:33:45.351Z,16.32
2023-10-29T16:36:20.225Z,16.17
2023-10-29T16:38:50.555Z,16.02
2023-10-29T16:41:21.097Z,15.96
2023-10-29T16:43:51.857Z,15.85
2023-10-29T16:46:22.366Z,15.73
2023-10-29T16:48:52.623Z,15.64
2023-10-29T16:51:25.944Z,15.62
2023-10-29T16:53:57.586Z,15.69
2023-10-29T16:56:28.096Z,15.60
2023-10-29T16:58:59.503Z,15.72
2023-10-29T17:01:29.852Z,15.65
2023-10-29T17:04:00.210Z,15.64
2023-10-29T17:06:33.387Z,15.62
2023-10-29T17:09:04.087Z,15.58
2023-10-29T17:11:34.327Z,15.60
2023-10-29T17:14:06.403Z,15.53
2023-10-29T17:16:36.695Z,15.49
2023-10-29T17:19:10.592Z,15.43
2023-10-29T17:21:45.578Z,15.48
2023-10-29T17:24:16.022Z,15.42
2023-10-29T17:26:46.639Z,15.42
2023-10-29T17:29:18.747Z,15.37
2023-10-29T17:31:54.683Z,15.45
2023-10-29T17:34:25.092Z,15.47
2023-10-29T17:37:19.043Z,15.47
2023-10-29T17:39:57.669Z,15.38
2023-10-29T17:42:32.614Z,15.32
2023-10-29T17:45:11.318Z,15.35
2023-10-29T17:47:50.109Z,15.28
2023-10-29T17:50:33.173Z,15.19
2023-10-29T17:53:15.051Z,15.14
2023-10-29T17:55:46.880Z,15.12
2023-10-29T17:58:27.497Z,15.06
2023-10-29T18:01:06.511Z,15.09
2023-10-29T18:03:47.520Z,15.06
2023-10-29T18:06:29.678Z,15.01
2023-10-29T18:09:02.754Z,14.93
2023-10-29T18:11:35.887Z,14.90
2023-10-29T18:14:06.190Z,14.94
2023-10-29T18:16:42.430Z,14.96
2023-10-29T18:19:15.984Z,14.93
2023-10-29T18:21:48.518Z,14.95
2023-10-29T18:24:25.026Z,14.95
2023-10-29T18:26:57.257Z,14.92
2023-10-29T18:29:31.273Z,14.94
2023-10-29T18:32:06.529Z,15.05
2023-10-29T18:34:41.839Z,14.98
2023-10-29T18:37:17.344Z,14.98
2023-10-29T18:39:54.845Z,15.01
2023-10-29T18:42:25.561Z,14.97
2023-10-29T18:44:56.152Z,14.94
2023-10-29T18:47:26.910Z,14.94
2023-10-29T18:49:59.214Z,14.88
2023-10-29T18:52:29.729Z,14.86
2023-10-29T18:55:06.695Z,14.91
2023-10-29T18:57:40.420Z,14.91
2023-10-29T19:00:15.590Z,14.88
2023-10-29T19:02:49.893Z,14.95
2023-10-29T19:05:23.406Z,14.94
2023-10-29T19:07:56.533Z,14.86
2023-10-29T19:10:29.651Z,14.90
2023-10-29T19:12:59.954Z,14.88
2023-10-29T19:15:30.874Z,14.94
2023-10-29T19:18:02.813Z,14.94
2023-10-29T19:20:41.146Z,14.98
2023-10-29T19:23:12.398Z,14.95
2023-10-29T19:25:46.549Z,15.03
2023-10-29T19:28:17.919Z,14.94
2023-10-29T19:31:05.086Z,14.95
2023-10-29T19:33:43.766Z,14.91
2023-10-29T19:36:17.310Z,14.90
2023-10-29T19:38:47.958Z,14.87
2023-10-29T19:41:23.247Z,14.88
2023-10-29T19:43:54.410Z,14.91
2023-10-29T19:46:32.442Z,14.78
2023-10-29T19:49:05.588Z,14.73
2023-10-29T19:51:36.202Z,14.71
2023-10-29T19:54:09.454Z,14.70
2023-10-29T19:56:43.115Z,14.80
2023-10-29T19:59:13.553Z,14.71
2023-10-29T20:01:44.110Z,14.69
2023-10-29T20:04:18.090Z,14.70
2023-10-29T20:06:48.355Z,14.68
2023-10-29T20:09:19.216Z,14.74
2023-10-29T20:11:54.028Z,14.66
2023-10-29T20:14:26.568Z,14.65
2023-10-29T20:16:57.449Z,14.74
2023-10-29T20:19:28.717Z,14.67
2023-10-29T20:22:01.724Z,14.72
2023-10-29T20:24:33.384Z,14.77
2023-10-29T20:27:06.768Z,14.87
2023-10-29T20:29:38.739Z,14.85
2023-10-29T20:32:10.532Z,14.86
2023-10-29T20:34:42.290Z,14.68
2023-10-29T20:37:13.395Z,14.72
2023-10-29T20:39:44.031Z,14.60
2023-10-29T20:42:23.379Z,14.61
2023-10-29T20:44:54.908Z,14.56
2023-10-29T20:47:25.805Z,14.59
2023-10-29T20:49:56.223Z,14.61
2023-10-29T20:52:27.308Z,14.50
2023-10-29T20:54:57.724Z,14.49
2023-10-29T20:57:34.530Z,14.57
2023-10-29T21:00:16.800Z,14.62
2023-10-29T21:02:47.397Z,14.74
2023-10-29T21:05:18.326Z,14.69
2023-10-29T21:07:48.912Z,14.73
2023-10-29T21:10:19.770Z,14.83
2023-10-29T21:12:54.804Z,14.81
2023-10-29T21:15:29.361Z,14.76
2023-10-29T21:18:00.257Z,14.72
2023-10-29T21:20:32.636Z,14.72
2023-10-29T21:23:02.893Z,14.73
2023-10-29T21:25:34.201Z,14.70
2023-10-29T21:28:07.573Z,14.63
2023-10-29T21:30:42.142Z,14.58
2023-10-29T21:33:12.624Z,14.62
2023-10-29T21:35:42.960Z,14.57
2023-10-29T21:38:13.237Z,14.51
2023-10-29T21:40:43.674Z,14.54
2023-10-29T21:43:16.976Z,14.53
2023-10-29T21:45:48.678Z,14.46
2023-10-29T21:48:19.047Z,14.46
2023-10-29T21:50:57.829Z,14.45
2023-10-29T21:53:28.578Z,14.44
2023-10-29T21:55:59.605Z,14.37
2023-10-29T21:58:32.445Z,14.32
2023-10-29T22:01:03.539Z,14.30
2023-10-29T22:03:35.343Z,14.28
2023-10-29T22:06:07.747Z,14.20
2023-10-29T22:08:38.275Z,14.16
2023-10-29T22:11:09.882Z,14.12
2023-10-29T22:13:43.316Z,14.07
2023-10-29T22:16:15.758Z,14.12
2023-10-29T22:18:46.281Z,14.08
2023-10-29T22:21:16.985Z,14.06
2023-10-29T22:23:47.346Z,14.00
2023-10-29T22:26:17.527Z,13.94
2023-10-29T22:28:50.812Z,13.97
2023-10-29T22:31:21.104Z,14.14
2023-10-29T22:33:51.977Z,14.20
2023-10-29T22:36:22.305Z,14.19
2023-10-29T22:38:52.542Z,14.27
2023-10-29T22:41:23.278Z,14.33
2023-10-29T22:43:56.204Z,14.39
2023-10-29T22:46:27.355Z,14.47
2023-10-29T22:48:57.584Z,14.49
2023-10-29T22:51:28.100Z,14.48
2023-10-29T22:53:58.326Z,14.58
2023-10-29T22:56:28.812Z,14.52
2023-10-29T22:59:02.319Z,14.48
2023-10-29T23:01:32.861Z,14.42
2023-10-29T23:04:03.265Z,14.42
2023-10-29T23:06:33.822Z,14.51
2023-10-29T23:09:04.315Z,14.48
2023-10-29T23:11:34.764Z,14.46
2023-10-29T23:14:07.813Z,14.53
2023-10-29T23:16:38.482Z,14.60
2023-10-29T23:19:08.937Z,14.57
2023-10-29T23:21:39.159Z,14.46
2023-10-29T23:24:10.742Z,14.41
2023-10-29T23:26:41.006Z,14.43
2023-10-29T23:29:13.965Z,14.43
2023-10-29T23:31:44.531Z,14.46
2023-10-29T23:34:15.440Z,14.44
2023-10-29T23:36:45.710Z,14.47
2023-10-29T23:39:16.238Z,14.34
2023-10-29T23:41:46.535Z,14.50
2023-10-29T23:44:20.063Z,14.60
2023-10-29T23:46:50.261Z,14.51
2023-10-29T23:49:20.970Z,14.48
2023-10-29T23:51:51.545Z,14.45
2023-10-29T23:54:21.950Z,14.54
2023-10-29T23:56:52.197Z,14.40
2023-10-29T23:59:25.102Z,14.44
